createdAt,value
2022-10-08T00:01:50.503Z,22.33
2022-10-08T00:32:35.382Z,18.85
2022-10-08T01:17:38.958Z,21.90
2022-10-08T01:20:37.564Z,19.60
2022-10-08T01:27:06.975Z,21.65
2022-10-08T01:47:49.443Z,21.87
2022-10-08T02:11:16.823Z,20.92
2022-10-08T03:08:40.906Z,23.50
2022-10-08T03:18:43.816Z,25.37
2022-10-08T04:29:25.419Z,20.88
2022-10-08T04:44:35.715Z,23.12
2022-10-08T04:47:11.492Z,21.50
2022-10-08T05:18:37.420Z,29.52
2022-10-08T05:23:44.543Z,24.25
2022-10-08T05:35:31.390Z,23.52
2022-10-08T06:10:17.199Z,23.15
2022-10-08T06:17:54.366Z,24.27
2022-10-08T06:34:16.717Z,24.30
2022-10-08T07:24:09.507Z,19.58
2022-10-08T07:27:01.413Z,19.90
2022-10-08T08:48:39.498Z,12.05
2022-10-08T08:51:15.803Z,14.27
2022-10-08T08:53:42.841Z,16.67
2022-10-08T08:56:16.033Z,14.85
2022-10-08T08:59:01.084Z,14.13
2022-10-08T10:04:02.058Z,10.13
2022-10-08T10:06:33.493Z,11.35
2022-10-08T10:38:15.989Z,10.40
2022-10-08T10:40:46.513Z,6.97
2022-10-08T10:43:48.347Z,10.35
2022-10-08T10:46:54.920Z,8.38
2022-10-08T11:00:55.978Z,10.00
2022-10-08T11:04:13.847Z,10.48
2022-10-08T11:16:17.241Z,8.45
2022-10-08T11:31:27.182Z,9.30
2022-10-08T11:33:56.231Z,10.85
2022-10-08T11:36:29.268Z,9.10
2022-10-08T11:39:54.936Z,7.62
2022-10-08T11:42:21.511Z,9.17
2022-10-08T11:44:48.132Z,10.73
2022-10-08T11:47:40.176Z,7.35
2022-10-08T11:58:23.690Z,7.53
2022-10-08T12:00:53.577Z,8.02
2022-10-08T12:09:22.361Z,6.72
2022-10-08T12:56:50.322Z,7.00
2022-10-08T12:59:18.554Z,10.10
2022-10-08T13:10:21.439Z,9.05
2022-10-08T13:13:26.894Z,14.07
2022-10-08T13:16:01.745Z,6.97
2022-10-08T13:41:08.974Z,8.30
2022-10-08T13:43:35.637Z,8.68
2022-10-08T13:46:02.489Z,8.52
2022-10-08T13:48:29.070Z,9.05
2022-10-08T13:50:57.257Z,7.90
2022-10-08T14:00:26.790Z,7.97
2022-10-08T14:02:55.993Z,8.70
2022-10-08T14:05:24.013Z,8.07
2022-10-08T14:08:42.528Z,8.40
2022-10-08T14:11:09.557Z,9.68
2022-10-08T14:14:21.110Z,8.13
2022-10-08T14:16:50.933Z,7.57
2022-10-08T15:01:11.043Z,7.35
2022-10-08T15:07:52.701Z,7.80
2022-10-08T15:10:19.347Z,12.82
2022-10-08T15:12:47.753Z,9.00
2022-10-08T15:15:14.558Z,10.57
2022-10-08T15:17:41.150Z,9.30
2022-10-08T15:44:20.870Z,9.82
2022-10-08T15:47:08.176Z,8.98
2022-10-08T16:23:38.540Z,15.75
2022-10-08T16:51:29.833Z,21.52
2022-10-08T16:53:58.589Z,16.77
2022-10-08T16:56:28.159Z,19.05
2022-10-08T16:59:05.209Z,17.40
2022-10-08T17:01:33.026Z,17.35
2022-10-08T17:04:00.391Z,20.05
2022-10-08T17:06:31.212Z,21.30
2022-10-08T17:09:00.386Z,24.27
2022-10-08T17:11:27.061Z,25.10
2022-10-08T17:13:57.877Z,22.60
2022-10-08T17:16:26.684Z,27.70
2022-10-08T17:19:01.575Z,30.33
2022-10-08T17:21:29.999Z,31.67
2022-10-08T17:24:04.280Z,35.85
2022-10-08T17:26:32.483Z,35.50
2022-10-08T17:29:17.975Z,57.75
2022-10-08T17:31:44.579Z,37.47
2022-10-08T17:34:11.911Z,26.70
2022-10-08T17:36:46.201Z,23.73
2022-10-08T17:39:15.407Z,26.08
2022-10-08T17:44:24.338Z,22.70
2022-10-08T17:46:52.118Z,24.63
2022-10-08T17:49:20.458Z,23.35
2022-10-08T17:51:47.836Z,25.10
2022-10-08T17:54:18.358Z,25.90
2022-10-08T18:10:54.409Z,23.80
2022-10-08T18:13:24.618Z,21.70
2022-10-08T18:18:48.076Z,21.87
2022-10-08T18:21:16.914Z,21.48
2022-10-08T18:23:46.034Z,20.10
2022-10-08T18:26:27.489Z,26.60
2022-10-08T18:28:56.416Z,28.60
2022-10-08T18:31:42.599Z,36.42
2022-10-08T18:34:30.782Z,32.05
2022-10-08T18:37:02.725Z,25.70
2022-10-08T18:39:29.258Z,28.97
2022-10-08T18:41:55.835Z,26.20
2022-10-08T18:44:24.818Z,27.30
2022-10-08T18:46:53.297Z,23.52
2022-10-08T18:49:28.984Z,21.87
2022-10-08T18:52:02.053Z,23.80
2022-10-08T18:54:29.056Z,22.27
2022-10-08T18:56:56.833Z,23.62
2022-10-08T18:59:23.494Z,28.95
2022-10-08T19:01:50.115Z,24.55
2022-10-08T19:04:21.896Z,24.20
2022-10-08T19:07:01.131Z,24.00
2022-10-08T19:09:52.728Z,22.73
2022-10-08T19:12:19.350Z,20.35
2022-10-08T19:14:47.124Z,23.60
2022-10-08T19:17:13.665Z,24.65
2022-10-08T19:19:40.191Z,24.00
2022-10-08T19:22:06.748Z,22.17
2022-10-08T19:24:35.482Z,22.02
2022-10-08T19:27:04.305Z,26.90
2022-10-08T19:29:33.720Z,21.65
2022-10-08T19:32:00.358Z,19.98
2022-10-08T19:34:28.057Z,26.00
2022-10-08T19:36:55.323Z,20.35
2022-10-08T19:39:24.599Z,18.50
2022-10-08T19:41:51.372Z,23.65
2022-10-08T19:44:18.829Z,21.48
2022-10-08T19:46:46.403Z,22.13
2022-10-08T19:49:13.416Z,23.05
2022-10-08T19:51:40.673Z,23.85
2022-10-08T19:54:08.656Z,18.65
2022-10-08T19:56:35.980Z,19.40
2022-10-08T19:59:02.616Z,21.73
2022-10-08T20:01:32.141Z,21.77
2022-10-08T20:04:00.400Z,20.90
2022-10-08T20:06:29.570Z,23.48
2022-10-08T20:08:58.955Z,20.30
2022-10-08T20:11:28.745Z,19.70
2022-10-08T20:13:55.709Z,19.92
2022-10-08T20:16:25.218Z,18.27
2022-10-08T20:18:59.341Z,17.30
2022-10-08T20:21:27.476Z,18.73
2022-10-08T20:23:54.059Z,16.92
2022-10-08T20:26:21.993Z,18.67
2022-10-08T20:28:51.444Z,19.27
2022-10-08T20:31:24.348Z,16.50
2022-10-08T20:36:28.492Z,18.02
2022-10-08T20:38:55.463Z,17.02
2022-10-08T20:41:25.468Z,17.77
2022-10-08T20:43:56.814Z,16.33
2022-10-08T20:46:23.414Z,17.17
2022-10-08T20:48:49.973Z,20.48
2022-10-08T20:51:20.005Z,19.15
2022-10-08T20:53:48.041Z,18.60
2022-10-08T20:56:15.364Z,17.15
2022-10-08T20:58:42.035Z,16.25
2022-10-08T21:01:18.603Z,17.87
2022-10-08T21:03:46.265Z,15.55
2022-10-08T21:06:19.491Z,17.50
2022-10-08T21:08:48.601Z,19.02
2022-10-08T21:11:17.873Z,19.48
2022-10-08T21:13:45.293Z,16.62
2022-10-08T21:16:14.045Z,18.02
2022-10-08T21:18:41.553Z,17.33
2022-10-08T21:21:11.070Z,15.88
2022-10-08T21:23:38.492Z,22.75
2022-10-08T21:26:16.795Z,15.25
2022-10-08T21:28:46.036Z,15.80
2022-10-08T21:31:13.790Z,16.20
2022-10-08T21:33:42.670Z,14.07
2022-10-08T21:36:12.705Z,15.35
2022-10-08T21:38:39.319Z,16.62
2022-10-08T21:41:37.822Z,16.50
2022-10-08T21:44:29.056Z,17.80
2022-10-08T21:47:00.879Z,16.50
2022-10-08T21:49:27.639Z,13.80
2022-10-08T21:51:54.168Z,15.35
2022-10-08T21:54:20.684Z,16.02
2022-10-08T21:56:47.434Z,15.93
2022-10-08T21:59:16.212Z,12.90
2022-10-08T22:01:50.921Z,14.38
2022-10-08T22:04:20.544Z,15.02
2022-10-08T22:06:53.162Z,18.80
2022-10-08T22:09:22.548Z,13.73
2022-10-08T22:11:50.307Z,14.48
2022-10-08T22:14:17.803Z,15.68
2022-10-08T22:17:28.421Z,15.23
2022-10-08T22:20:07.410Z,13.73
2022-10-08T22:22:33.945Z,13.70
2022-10-08T22:25:00.487Z,13.07
2022-10-08T22:27:27.019Z,15.77
2022-10-08T22:29:53.551Z,12.73
2022-10-08T22:32:20.064Z,13.48
2022-10-08T22:34:46.642Z,13.93
2022-10-08T22:37:13.166Z,12.65
2022-10-08T22:39:39.987Z,13.25
2022-10-08T22:42:06.498Z,14.52
2022-10-08T22:44:33.046Z,13.52
2022-10-08T22:46:59.576Z,16.33
2022-10-08T22:49:26.189Z,16.42
2022-10-08T22:51:58.915Z,15.07
2022-10-08T22:54:25.831Z,13.52
2022-10-08T22:56:52.382Z,13.57
2022-10-08T22:59:19.090Z,12.55
2022-10-08T23:01:45.657Z,13.25
2022-10-08T23:04:12.219Z,13.40
2022-10-08T23:09:53.296Z,13.13
2022-10-08T23:12:19.882Z,13.65
2022-10-08T23:14:46.459Z,12.75
2022-10-08T23:17:13.003Z,13.98
2022-10-08T23:19:39.540Z,12.95
2022-10-08T23:22:06.054Z,12.52
2022-10-08T23:24:44.915Z,13.80
2022-10-08T23:27:11.449Z,13.32
2022-10-08T23:29:37.980Z,11.68
2022-10-08T23:32:04.558Z,13.18
2022-10-08T23:34:31.144Z,11.82
2022-10-08T23:36:57.680Z,17.12
2022-10-08T23:39:24.269Z,14.50
2022-10-08T23:42:03.349Z,14.50
2022-10-08T23:44:42.597Z,14.52
2022-10-08T23:47:09.112Z,12.57
2022-10-08T23:49:35.644Z,12.50
2022-10-08T23:52:02.155Z,12.90
2022-10-08T23:54:28.698Z,14.90
2022-10-08T23:56:55.246Z,12.30
2022-10-08T23:59:36.952Z,13.65
